createdAt,value
2018-02-07T00:03:01.167Z,7.23
2018-02-07T00:08:03.706Z,7.60
2018-02-07T00:13:06.675Z,7.73
2018-02-07T00:18:09.509Z,7.63
2018-02-07T00:23:12.047Z,7.57
2018-02-07T00:28:15.002Z,7.70
2018-02-07T00:33:18.091Z,7.20
2018-02-07T00:38:20.625Z,6.77
2018-02-07T00:43:24.221Z,7.40
2018-02-07T00:48:27.017Z,6.90
2018-02-07T00:53:29.748Z,7.03
2018-02-07T00:58:32.880Z,8.30
2018-02-07T01:03:35.390Z,7.07
2018-02-07T01:08:39.111Z,6.17
2018-02-07T01:13:42.170Z,6.80
2018-02-07T01:18:45.032Z,6.40
2018-02-07T01:23:47.554Z,6.83
2018-02-07T01:28:51.014Z,6.10
2018-02-07T01:33:54.135Z,6.70
2018-02-07T01:38:56.781Z,6.43
2018-02-07T01:44:00.157Z,6.27
2018-02-07T01:49:02.878Z,6.30
2018-02-07T01:54:06.476Z,5.87
2018-02-07T01:59:09.006Z,5.70
2018-02-07T02:04:11.795Z,5.60
2018-02-07T02:09:14.430Z,5.10
2018-02-07T02:14:16.983Z,5.90
2018-02-07T02:19:20.975Z,5.30
2018-02-07T02:24:23.706Z,5.80
2018-02-07T02:29:27.011Z,5.43
2018-02-07T02:34:29.558Z,4.90
2018-02-07T02:39:32.603Z,5.17
2018-02-07T02:44:35.275Z,4.53
2018-02-07T02:49:37.804Z,4.80
2018-02-07T02:54:40.406Z,4.50
2018-02-07T02:59:43.800Z,4.60
2018-02-07T03:04:46.824Z,4.67
2018-02-07T03:09:49.374Z,4.80
2018-02-07T03:14:52.019Z,4.27
2018-02-07T03:19:54.905Z,4.77
2018-02-07T03:24:57.505Z,4.70
2018-02-07T03:30:00.328Z,5.30
2018-02-07T03:35:03.926Z,4.33
2018-02-07T03:40:06.828Z,5.00
2018-02-07T03:45:09.513Z,4.80
2018-02-07T03:50:12.834Z,4.00
2018-02-07T03:55:15.737Z,4.60
2018-02-07T04:00:18.283Z,4.50
2018-02-07T04:05:21.322Z,4.40
2018-02-07T04:10:24.221Z,4.77
2018-02-07T04:15:27.019Z,4.07
2018-02-07T04:20:29.660Z,3.60
2018-02-07T04:25:32.541Z,4.60
2018-02-07T04:30:36.022Z,4.10
2018-02-07T04:35:38.554Z,4.50
2018-02-07T04:40:41.954Z,4.30
2018-02-07T04:45:44.848Z,3.93
2018-02-07T04:50:47.652Z,4.00
2018-02-07T04:55:50.193Z,3.40
2018-02-07T05:00:52.783Z,3.53
2018-02-07T05:05:55.805Z,3.67
2018-02-07T05:10:58.572Z,4.93
2018-02-07T05:16:01.458Z,3.73
2018-02-07T05:21:04.762Z,3.67
2018-02-07T05:26:07.941Z,3.30
2018-02-07T05:31:10.688Z,3.90
2018-02-07T05:36:14.708Z,3.63
2018-02-07T05:41:17.225Z,3.30
2018-02-07T05:46:20.512Z,3.37
2018-02-07T05:51:23.783Z,3.53
2018-02-07T05:56:26.443Z,3.70
2018-02-07T06:01:29.295Z,3.20
2018-02-07T06:06:32.571Z,3.47
2018-02-07T06:11:35.120Z,3.20
2018-02-07T06:16:38.744Z,4.20
2018-02-07T06:21:41.679Z,4.40
2018-02-07T06:26:45.061Z,4.00
2018-02-07T06:31:47.629Z,3.70
2018-02-07T06:36:50.256Z,3.53
2018-02-07T06:41:52.791Z,3.67
2018-02-07T06:46:55.846Z,3.63
2018-02-07T06:51:58.746Z,3.30
2018-02-07T06:57:01.262Z,3.87
2018-02-07T07:02:03.832Z,3.40
2018-02-07T07:07:07.150Z,2.93
2018-02-07T07:12:09.701Z,2.80
2018-02-07T07:17:12.865Z,3.43
2018-02-07T07:22:15.551Z,3.30
2018-02-07T07:27:18.250Z,3.10
2018-02-07T07:32:21.628Z,3.03
2018-02-07T07:37:24.179Z,3.47
2018-02-07T07:42:26.687Z,3.50
2018-02-07T07:47:29.514Z,3.20
2018-02-07T07:52:32.220Z,3.53
2018-02-07T07:57:34.760Z,5.13
2018-02-07T08:02:37.305Z,3.37
2018-02-07T08:07:40.367Z,3.93
2018-02-07T08:12:43.730Z,3.13
2018-02-07T08:17:46.544Z,3.20
2018-02-07T08:22:49.961Z,2.90
2018-02-07T08:27:53.100Z,2.97
2018-02-07T08:32:57.099Z,3.57
2018-02-07T08:38:00.719Z,3.13
2018-02-07T08:43:03.559Z,6.20
2018-02-07T08:48:06.627Z,6.90
2018-02-07T08:53:10.440Z,8.77
2018-02-07T08:58:12.987Z,6.93
2018-02-07T09:03:16.009Z,5.23
2018-02-07T09:08:19.356Z,6.07
2018-02-07T09:13:21.949Z,3.80
2018-02-07T09:18:24.868Z,6.50
2018-02-07T09:23:27.496Z,5.83
2018-02-07T09:28:30.313Z,5.83
2018-02-07T09:33:33.047Z,5.80
2018-02-07T09:38:38.892Z,6.30
2018-02-07T09:43:41.746Z,7.20
2018-02-07T09:48:44.734Z,6.03
2018-02-07T09:53:48.316Z,5.80
2018-02-07T09:58:51.023Z,6.10
2018-02-07T10:03:53.755Z,6.03
2018-02-07T10:08:56.350Z,6.80
2018-02-07T10:13:59.642Z,6.00
2018-02-07T10:19:02.590Z,5.83
2018-02-07T10:24:05.411Z,5.43
2018-02-07T10:29:07.950Z,5.85
2018-02-07T10:34:11.546Z,6.27
2018-02-07T10:39:15.594Z,6.70
2018-02-07T10:44:18.351Z,5.53
2018-02-07T10:49:21.482Z,5.80
2018-02-07T10:54:24.023Z,6.40
2018-02-07T10:59:26.555Z,5.80
2018-02-07T11:04:29.441Z,6.13
2018-02-07T11:09:32.262Z,6.10
2018-02-07T11:14:34.969Z,7.70
2018-02-07T11:19:37.678Z,6.70
2018-02-07T11:24:40.461Z,5.90
2018-02-07T11:29:44.211Z,6.80
2018-02-07T11:34:46.775Z,7.23
2018-02-07T11:39:49.509Z,8.10
2018-02-07T11:44:52.853Z,8.30
2018-02-07T11:49:55.580Z,7.47
2018-02-07T11:54:58.165Z,7.70
2018-02-07T12:00:00.933Z,7.83
2018-02-07T12:05:03.476Z,6.90
2018-02-07T12:10:06.309Z,8.40
2018-02-07T12:15:09.064Z,7.10
2018-02-07T12:20:12.198Z,7.73
2018-02-07T12:25:14.715Z,7.90
2018-02-07T12:30:17.515Z,6.60
2018-02-07T12:35:20.333Z,7.10
2018-02-07T12:40:23.722Z,7.37
2018-02-07T12:45:26.632Z,6.00
2018-02-07T12:50:29.377Z,6.10
2018-02-07T12:55:32.390Z,8.57
2018-02-07T13:00:36.064Z,6.47
2018-02-07T13:05:39.252Z,7.43
2018-02-07T13:10:42.558Z,6.67
2018-02-07T13:15:46.288Z,7.47
2018-02-07T13:20:49.260Z,8.37
2018-02-07T13:25:52.138Z,7.33
2018-02-07T13:30:56.950Z,7.73
2018-02-07T13:35:59.863Z,6.33
2018-02-07T13:41:02.734Z,6.70
2018-02-07T13:46:05.325Z,6.83
2018-02-07T13:51:08.611Z,5.90
2018-02-07T13:56:11.194Z,5.87
2018-02-07T14:01:13.683Z,6.00
2018-02-07T14:06:16.208Z,6.10
2018-02-07T14:11:18.832Z,6.30
2018-02-07T14:16:21.428Z,5.43
2018-02-07T14:21:23.992Z,6.00
2018-02-07T14:26:26.539Z,5.10
2018-02-07T14:31:30.190Z,6.10
2018-02-07T14:36:33.691Z,6.00
2018-02-07T14:41:36.238Z,5.90
2018-02-07T14:46:39.529Z,6.10
2018-02-07T14:51:42.847Z,5.70
2018-02-07T14:56:46.485Z,5.23
2018-02-07T15:01:49.056Z,5.40
2018-02-07T15:06:51.664Z,5.93
2018-02-07T15:11:54.470Z,5.20
2018-02-07T15:16:57.270Z,5.63
2018-02-07T15:22:00.594Z,4.23
2018-02-07T15:27:03.820Z,5.43
2018-02-07T15:32:07.412Z,5.53
2018-02-07T15:37:10.048Z,5.43
2018-02-07T15:42:12.591Z,5.40
2018-02-07T15:47:15.115Z,5.07
2018-02-07T15:52:17.733Z,4.97
2018-02-07T15:57:20.235Z,5.07
2018-02-07T16:02:22.719Z,5.23
2018-02-07T16:07:25.693Z,5.47
2018-02-07T16:12:28.201Z,4.97
2018-02-07T16:17:31.487Z,5.20
2018-02-07T16:22:34.041Z,5.37
2018-02-07T16:27:37.315Z,5.40
2018-02-07T16:32:40.015Z,6.07
2018-02-07T16:37:42.816Z,5.53
2018-02-07T16:42:45.329Z,5.13
2018-02-07T16:47:47.846Z,5.33
2018-02-07T16:52:51.163Z,6.30
2018-02-07T16:57:53.769Z,5.60
2018-02-07T17:02:56.586Z,4.83
2018-02-07T17:07:59.154Z,5.40
2018-02-07T17:13:02.583Z,6.17
2018-02-07T17:18:05.197Z,5.17
2018-02-07T17:23:08.816Z,6.43
2018-02-07T17:28:11.376Z,5.87
2018-02-07T17:33:15.820Z,5.27
2018-02-07T17:38:18.357Z,6.10
2018-02-07T17:43:20.890Z,5.43
2018-02-07T17:48:24.758Z,5.27
2018-02-07T17:53:27.510Z,5.57
2018-02-07T17:58:30.830Z,6.20
2018-02-07T18:03:33.788Z,6.20
2018-02-07T18:08:36.713Z,5.27
2018-02-07T18:13:39.652Z,5.80
2018-02-07T18:18:42.507Z,5.70
2018-02-07T18:23:45.075Z,5.40
2018-02-07T18:28:47.962Z,5.10
2018-02-07T18:33:50.584Z,5.70
2018-02-07T18:38:53.271Z,6.00
2018-02-07T18:43:55.918Z,5.57
2018-02-07T18:48:59.060Z,5.00
2018-02-07T18:54:01.789Z,5.50
2018-02-07T18:59:04.361Z,5.67
2018-02-07T19:04:06.895Z,5.50
2018-02-07T19:09:09.491Z,5.47
2018-02-07T19:14:12.101Z,6.10
2018-02-07T19:19:15.015Z,6.27
2018-02-07T19:24:17.919Z,6.67
2018-02-07T19:29:20.686Z,5.87
2018-02-07T19:34:23.516Z,6.10
2018-02-07T19:39:26.416Z,6.10
2018-02-07T19:44:28.928Z,6.53
2018-02-07T19:49:32.344Z,5.80
2018-02-07T19:54:34.876Z,6.10
2018-02-07T19:59:37.526Z,6.77
2018-02-07T20:04:41.750Z,8.00
2018-02-07T20:09:44.652Z,6.83
2018-02-07T20:14:47.550Z,6.53
2018-02-07T20:19:50.251Z,7.57
2018-02-07T20:24:53.717Z,6.90
2018-02-07T20:29:56.260Z,6.63
2018-02-07T20:34:59.089Z,6.43
2018-02-07T20:40:01.620Z,5.50
2018-02-07T20:45:04.164Z,5.53
2018-02-07T20:50:06.926Z,6.33
2018-02-07T20:55:09.614Z,5.80
2018-02-07T21:00:12.130Z,5.87
2018-02-07T21:05:15.258Z,5.90
2018-02-07T21:10:17.894Z,6.20
2018-02-07T21:15:20.417Z,5.40
2018-02-07T21:20:22.942Z,5.80
2018-02-07T21:25:25.555Z,5.53
2018-02-07T21:30:28.164Z,5.80
2018-02-07T21:35:30.733Z,5.80
2018-02-07T21:40:33.734Z,5.80
2018-02-07T21:45:37.545Z,4.97
2018-02-07T21:50:40.086Z,5.90
2018-02-07T21:55:42.713Z,5.67
2018-02-07T22:00:45.584Z,5.20
2018-02-07T22:05:48.099Z,4.90
2018-02-07T22:10:50.833Z,4.87
2018-02-07T22:15:54.143Z,7.20
2018-02-07T22:20:57.746Z,8.10
2018-02-07T22:26:00.424Z,8.53
2018-02-07T22:31:03.397Z,8.87
2018-02-07T22:36:05.951Z,9.00
2018-02-07T22:41:08.542Z,9.03
2018-02-07T22:46:11.892Z,9.53
2018-02-07T22:51:14.441Z,9.33
2018-02-07T22:56:17.012Z,9.33
2018-02-07T23:01:19.962Z,9.20
2018-02-07T23:06:23.344Z,9.60
2018-02-07T23:11:26.145Z,9.20
2018-02-07T23:16:28.990Z,10.03
2018-02-07T23:21:32.099Z,8.30
2018-02-07T23:26:35.447Z,9.10
2018-02-07T23:31:38.263Z,9.50
2018-02-07T23:36:41.049Z,10.57
2018-02-07T23:41:44.134Z,9.23
2018-02-07T23:46:46.694Z,9.90
2018-02-07T23:51:49.984Z,9.27
2018-02-07T23:56:53.273Z,9.63
